SCCISAVC

Guest
Details From SCCI - Carlos Ibanez del Campo Intl
To SAVC - COMODORO RIVADAVIA
Flight Number -
Tags decoded
Created
Modified
Stats Distance 459 nm / 850 km
Max Altitude 0 ft / 0 m
Waypoints 5
Social Downloads 1
Likes 0
Share VATSIM

Download

Looking for another format? Having issues loading an existing format? Contact us
Advertisement - Login to hide

Notes

Requested: SCCI PALIX GAL UTRUN SAVC

Route

SCCI PALIX GAL UTRUN SAVC

ID Type Via Altitude Latitude Longitude Leg Dist Tot Dist Heading (true) Name
O SCCI APT - 0 ft / 0 m -53.00265˚ -70.85349˚ - 0 nm - Carlos Ibanez del Campo Intl
PALIX FIX - 0 ft / 0 m -52.06667˚ -69.80000˚ 68 nm 68 nm 35° / 34° -
GAL NDB - 0 ft / 0 m -51.62500˚ -69.28444˚ 32 nm 100 nm 36° / 36° RIO GALLEGOS NDB
UTRUN FIX - 0 ft / 0 m -49.21722˚ -68.47000˚ 147 nm 248 nm 12° / 12° -
O SAVC APT - 0 ft / 0 m -45.78535˚ -67.46556˚ 210 nm 458 nm 12° / 11° COMODORO RIVADAVIA

Altitude Profile

Advertisement - Login to hide

Weather


0- 5 10 15 20 25 30 35+ Temperature / ° C

Clouds and Precipitation
Forecast for 2017-12-15 00:00 UTC. Updated 2 hours ago

Ground ~20,000 ft ~40,000 ft Winds

SCCI

Details ICAO SCCI (PUQ)
Name Carlos Ibanez del Campo Intl
Region Chile
Timezone America/Santiago (UTC-3.0)
Stats Elevation 139 ft / 42 m (AMSL)
Location -53.002650° -70.853492°
Runways 3
Magnetic Variation 13.210° E

METAR

SCCI 142300Z 25013KT 9999 FEW030 SCT040 BKN100 08/01 Q0992 NOSIG

Decode

TAF

TAF SCCI 141648Z 1418/1518 27025G35KT 9999 SCT035 TX10/1418Z TN05/1509Z TEMPO 1418/1422 28030G40KT 7000 -SHRA SCT020 BKN030 BECMG LVA1426 141730 GG EGGYYBYA EGZZMSAM KWBCYMYX KWBCYZYX 141730 SPIMYZYX FTPR77 SPIM 141700 SPCL 141700Z 1418/1518 00000KT 9999 SCT020 TX34/1420Z TN23/1511Z TEMPO 1418/1421 FEW010TCU SCT080 BECMG 1421/1501 00000KT 9999 NSC PROB40 TX34/1420Z TN17/1511Z PROB40 1418/1422 02004KT SCT020 BECMG 1422/1501 22006KT CAVOK TEMPO 1518/1521 03008KT FEW010TCULVA1427 141730 GG EGGYYBYA EGZZMSAM KWBCYMYX KWBCYZYX 141730 SPZOYFYX SAPR01 SPIM 141730 METAR S CHECK TEXT NEW ENDING ADDED KATLYTAA

Decode

Departure Runways

ID Width Length Bearing (true) Bearing (mag) Surface Threshold Offset Overrun Length
01 148 ft / 45 m 5,509 ft / 1,679 m 15.00° 1.79° Asphalt 0 ft / 0 m 0 ft / 0 m
07 148 ft / 45 m 9,162 ft / 2,793 m 75.02° 61.81° Asphalt 0 ft / 0 m 190 ft / 58 m
12 148 ft / 45 m 7,884 ft / 2,403 m 125.01° 111.80° Asphalt 0 ft / 0 m 190 ft / 58 m
19 148 ft / 45 m 5,509 ft / 1,679 m 195.00° 181.79° Asphalt 0 ft / 0 m 0 ft / 0 m
25 148 ft / 45 m 9,162 ft / 2,793 m 254.98° 241.77° Asphalt 0 ft / 0 m 755 ft / 230 m
30 148 ft / 45 m 7,884 ft / 2,403 m 304.99° 291.78° Asphalt 0 ft / 0 m 190 ft / 58 m

SAVC

Details ICAO SAVC (CRD)
Name COMODORO RIVADAVIA
Region Argentina
Timezone America/Argentina/Catamarca (UTC-3.0)
Stats Elevation 190 ft / 58 m (AMSL)
Location -45.785349° -67.465561°
Runways 1
Magnetic Variation 6.304° E

METAR

SAVC 142300Z 27020G33KT 9999 FEW040 23/03 Q1002

Decode

TAF

TAF SAVC 141700Z 1418/1518 29030G45KT 9999 SCT030 BKN090 TX24/1418Z TN11/1509Z PROB40 TEMPO 1418/1420 27025G40KT BECMG 1422/1500 27020G35KT BECMG 1511/1513 30030G45KT

Decode

Destination Runways

ID Width Length Bearing (true) Bearing (mag) Surface Threshold Offset Overrun Length
07 164 ft / 50 m 9,269 ft / 2,825 m 78.97° 72.67° Concrete 0 ft / 0 m 492 ft / 150 m
25 164 ft / 50 m 9,269 ft / 2,825 m 258.95° 252.65° Concrete 0 ft / 0 m 820 ft / 250 m

Approach Navaids

Runway Type Ident Frequency Range Bearing (true) Bearing (mag) Slope Elevation
25 Localiser CR 110.30 MHz 18 nm / 33 km 259.38° 253.08° - 190 ft / 58 m (AMSL)
25 Glidescope CR 110.30 MHz 10 nm / 19 km 258.96° 252.66° 3.00° 190 ft / 58 m (AMSL)

Popular Alternatives